createdAt,value
2018-12-01T00:01:39.257Z,20.7
2018-12-01T00:04:45.102Z,20.7
2018-12-01T00:07:51.051Z,20.6
2018-12-01T00:10:56.981Z,20.6
2018-12-01T00:14:04.069Z,20.6
2018-12-01T00:17:10.022Z,20.6
2018-12-01T00:20:15.930Z,20.5
2018-12-01T00:23:21.980Z,20.6
2018-12-01T00:26:27.961Z,20.6
2018-12-01T00:29:33.899Z,20.5
2018-12-01T00:32:39.897Z,20.5
2018-12-01T00:35:45.878Z,20.5
2018-12-01T00:38:51.910Z,20.5
2018-12-01T00:41:57.838Z,20.5
2018-12-01T00:45:03.754Z,20.4
2018-12-01T00:48:09.655Z,20.4
2018-12-01T00:51:15.644Z,20.4
2018-12-01T00:54:21.573Z,20.4
2018-12-01T00:57:27.559Z,20.4
2018-12-01T01:00:33.491Z,20.4
2018-12-01T01:03:39.428Z,20.4
2018-12-01T01:06:45.320Z,20.4
2018-12-01T01:09:51.302Z,20.3
2018-12-01T01:12:57.347Z,20.3
2018-12-01T01:16:03.313Z,20.3
2018-12-01T01:19:09.264Z,20.3
2018-12-01T01:22:15.108Z,20.3
2018-12-01T01:25:21.149Z,20.3
2018-12-01T01:28:27.132Z,20.2
2018-12-01T01:31:33.044Z,20.2
2018-12-01T01:34:38.945Z,20.3
2018-12-01T01:37:45.026Z,20.3
2018-12-01T01:40:50.935Z,20.2
2018-12-01T01:43:56.948Z,20.2
2018-12-01T01:47:02.890Z,20.2
2018-12-01T01:50:08.819Z,20.2
2018-12-01T01:53:14.707Z,20.2
2018-12-01T01:56:20.770Z,20.1
2018-12-01T01:59:26.628Z,20.2
2018-12-01T02:02:32.572Z,20.1
2018-12-01T02:05:38.545Z,20.1
2018-12-01T02:08:44.398Z,20.1
2018-12-01T02:11:50.374Z,20.1
2018-12-01T02:14:56.390Z,20.1
2018-12-01T02:18:02.348Z,20.1
2018-12-01T02:21:08.311Z,20.1
2018-12-01T02:24:14.327Z,20.1
2018-12-01T02:27:20.257Z,20
2018-12-01T02:30:26.241Z,20.1
2018-12-01T02:33:32.172Z,20
2018-12-01T02:36:38.110Z,20.1
2018-12-01T02:39:44.106Z,20.1
2018-12-01T02:42:50.116Z,20
2018-12-01T02:45:56.110Z,20
2018-12-01T02:49:02.101Z,20
2018-12-01T02:52:08.111Z,20
2018-12-01T02:55:14.087Z,20
2018-12-01T02:58:20.101Z,20
2018-12-01T03:01:26.123Z,20
2018-12-01T03:04:31.970Z,20
2018-12-01T03:07:37.960Z,20
2018-12-01T03:10:44.018Z,20
2018-12-01T03:13:49.948Z,20
2018-12-01T03:16:55.887Z,20
2018-12-01T03:20:01.958Z,20
2018-12-01T03:23:07.830Z,20
2018-12-01T03:26:13.769Z,19.9
2018-12-01T03:29:19.640Z,19.9
2018-12-01T03:32:25.643Z,19.9
2018-12-01T03:35:31.739Z,19.9
2018-12-01T03:38:37.628Z,19.9
2018-12-01T03:41:43.608Z,19.9
2018-12-01T03:44:49.613Z,19.9
2018-12-01T03:47:55.556Z,19.9
2018-12-01T03:51:01.384Z,19.8
2018-12-01T03:54:07.363Z,19.8
2018-12-01T03:57:13.332Z,19.8
2018-12-01T04:00:19.378Z,19.9
2018-12-01T04:03:25.366Z,19.9
2018-12-01T04:06:31.255Z,19.8
2018-12-01T04:09:37.160Z,19.8
2018-12-01T04:12:43.265Z,19.8
2018-12-01T04:15:49.381Z,19.8
2018-12-01T04:18:55.654Z,19.8
2018-12-01T04:22:01.645Z,19.8
2018-12-01T04:25:07.596Z,19.8
2018-12-01T04:28:13.618Z,19.8
2018-12-01T04:31:19.672Z,19.7
2018-12-01T04:34:25.682Z,19.7
2018-12-01T04:37:31.671Z,19.7
2018-12-01T04:40:37.542Z,19.7
2018-12-01T04:43:43.582Z,19.7
2018-12-01T04:46:49.515Z,19.7
2018-12-01T04:49:55.404Z,19.7
2018-12-01T04:53:01.379Z,19.6
2018-12-01T04:56:07.379Z,19.7
2018-12-01T04:59:13.285Z,19.7
2018-12-01T05:02:19.462Z,19.6
2018-12-01T05:05:25.548Z,19.7
2018-12-01T05:08:31.552Z,19.6
2018-12-01T05:11:37.431Z,19.6
2018-12-01T05:14:43.414Z,19.6
2018-12-01T05:17:49.522Z,19.6
2018-12-01T05:20:55.514Z,19.6
2018-12-01T05:24:01.401Z,19.6
2018-12-01T05:27:07.376Z,19.5
2018-12-01T05:30:13.293Z,19.6
2018-12-01T05:33:19.298Z,19.6
2018-12-01T05:36:25.313Z,19.6
2018-12-01T05:39:31.275Z,19.6
2018-12-01T05:42:37.199Z,19.5
2018-12-01T05:45:43.086Z,19.5
2018-12-01T05:48:49.030Z,19.5
2018-12-01T05:51:54.904Z,19.5
2018-12-01T05:55:00.846Z,19.5
2018-12-01T05:58:06.717Z,19.5
2018-12-01T06:01:15.708Z,19.5
2018-12-01T06:04:21.710Z,19.5
2018-12-01T06:07:27.621Z,19.5
2018-12-01T06:10:33.623Z,19.5
2018-12-01T06:13:39.598Z,19.5
2018-12-01T06:16:45.542Z,19.5
2018-12-01T06:19:51.533Z,19.5
2018-12-01T06:22:57.536Z,19.5
2018-12-01T06:26:03.526Z,19.5
2018-12-01T06:29:12.178Z,19.5
2018-12-01T06:32:18.244Z,19.5
2018-12-01T06:35:24.173Z,19.5
2018-12-01T06:38:30.199Z,19.5
2018-12-01T06:41:36.131Z,19.6
2018-12-01T06:44:42.068Z,19.6
2018-12-01T06:47:48.071Z,19.6
2018-12-01T06:50:53.961Z,19.5
2018-12-01T06:53:59.894Z,19.6
2018-12-01T06:57:05.786Z,19.6
2018-12-01T07:00:11.787Z,19.6
2018-12-01T07:03:17.705Z,19.6
2018-12-01T07:06:26.457Z,19.6
2018-12-01T07:09:32.465Z,19.6
2018-12-01T07:12:38.387Z,19.6
2018-12-01T07:15:44.344Z,19.6
2018-12-01T07:18:51.172Z,19.6
2018-12-01T07:21:57.264Z,19.7
2018-12-01T07:25:03.307Z,19.7
2018-12-01T07:28:09.260Z,19.8
2018-12-01T07:31:15.129Z,19.8
2018-12-01T07:34:21.130Z,19.9
2018-12-01T07:37:27.186Z,19.9
2018-12-01T07:40:33.101Z,20
2018-12-01T07:43:39.078Z,20
2018-12-01T07:46:45.024Z,20
2018-12-01T07:49:51.015Z,20.1
2018-12-01T07:52:56.939Z,20.1
2018-12-01T07:56:03.025Z,20.1
2018-12-01T07:59:09.014Z,20.2
2018-12-01T08:02:15.027Z,20.2
2018-12-01T08:05:20.960Z,20.2
2018-12-01T08:08:26.868Z,20.3
2018-12-01T08:11:32.879Z,20.3
2018-12-01T08:14:39.028Z,20.4
2018-12-01T08:17:45.023Z,20.4
2018-12-01T08:20:50.886Z,20.4
2018-12-01T08:23:57.974Z,20.5
2018-12-01T08:27:03.888Z,20.5
2018-12-01T08:30:09.853Z,20.5
2018-12-01T08:33:15.809Z,20.5
2018-12-01T08:36:24.856Z,20.6
2018-12-01T08:39:30.936Z,20.6
2018-12-01T08:42:36.872Z,20.6
2018-12-01T08:45:42.870Z,20.6
2018-12-01T08:48:48.897Z,20.7
2018-12-01T08:51:54.851Z,20.7
2018-12-01T08:55:00.814Z,20.7
2018-12-01T08:58:06.768Z,20.7
2018-12-01T09:01:12.658Z,20.7
2018-12-01T09:04:18.690Z,20.8
2018-12-01T09:07:24.811Z,20.8
2018-12-01T09:10:30.869Z,20.8
2018-12-01T09:13:36.918Z,20.9
2018-12-01T09:16:43.047Z,20.8
2018-12-01T09:19:49.075Z,20.8
2018-12-01T09:22:54.996Z,20.8
2018-12-01T09:26:01.130Z,20.9
2018-12-01T09:29:07.200Z,20.9
2018-12-01T09:32:13.083Z,20.9
2018-12-01T09:35:19.110Z,21
2018-12-01T09:38:25.087Z,20.9
2018-12-01T09:41:31.076Z,21
2018-12-01T09:44:37.007Z,21
2018-12-01T09:47:43.070Z,21
2018-12-01T09:50:48.991Z,21
2018-12-01T09:53:57.503Z,21
2018-12-01T09:57:03.579Z,21
2018-12-01T10:00:09.528Z,21
2018-12-01T10:03:15.518Z,21
2018-12-01T10:06:21.383Z,21
2018-12-01T10:09:27.323Z,21
2018-12-01T10:12:33.210Z,21.1
2018-12-01T10:15:39.237Z,21.1
2018-12-01T10:18:45.182Z,21.1
2018-12-01T10:21:51.234Z,21.1
2018-12-01T10:24:57.443Z,21.1
2018-12-01T10:28:03.437Z,21.1
2018-12-01T10:31:09.377Z,21.1
2018-12-01T10:34:18.385Z,21.1
2018-12-01T10:37:24.580Z,21.2
2018-12-01T10:40:30.522Z,21.2
2018-12-01T10:43:36.494Z,21.2
2018-12-01T10:46:45.571Z,21.2
2018-12-01T10:49:51.558Z,21.2
2018-12-01T10:52:57.439Z,21.2
2018-12-01T10:56:03.451Z,21.1
2018-12-01T10:59:09.505Z,21.2
2018-12-01T11:02:15.465Z,21.2
2018-12-01T11:05:21.377Z,21.2
2018-12-01T11:08:27.354Z,21.2
2018-12-01T11:11:33.396Z,21.2
2018-12-01T11:14:39.430Z,21.2
2018-12-01T11:17:48.143Z,21.3
2018-12-01T11:20:54.087Z,21.3
2018-12-01T11:24:00.215Z,21.3
2018-12-01T11:27:06.270Z,21.3
2018-12-01T11:30:15.008Z,21.3
2018-12-01T11:33:21.047Z,21.3
2018-12-01T11:36:27.099Z,21.3
2018-12-01T11:39:33.250Z,21.3
2018-12-01T11:42:39.245Z,21.3
2018-12-01T11:45:45.257Z,21.3
2018-12-01T11:48:51.340Z,21.3
2018-12-01T11:51:57.223Z,21.4
2018-12-01T11:55:03.455Z,21.4
2018-12-01T11:58:09.443Z,21.3
2018-12-01T12:01:15.384Z,21.4
2018-12-01T12:04:21.264Z,21.4
2018-12-01T12:07:27.442Z,21.4
2018-12-01T12:10:33.534Z,21.4
2018-12-01T12:13:39.449Z,21.4
2018-12-01T12:16:45.465Z,21.3
2018-12-01T12:19:51.367Z,21.4
2018-12-01T12:22:57.448Z,21.4
2018-12-01T12:26:03.302Z,21.4
2018-12-01T12:29:09.309Z,21.4
2018-12-01T12:32:15.273Z,21.4
2018-12-01T12:35:21.403Z,21.4
2018-12-01T12:38:27.380Z,21.4
2018-12-01T12:41:33.307Z,21.4
2018-12-01T12:44:39.305Z,21.4
2018-12-01T12:47:45.386Z,21.4
2018-12-01T12:50:53.192Z,21.4
2018-12-01T12:53:59.456Z,21.4
2018-12-01T12:57:05.398Z,21.4
2018-12-01T13:00:11.357Z,21.4
2018-12-01T13:03:17.427Z,21.4
2018-12-01T13:06:23.542Z,21.4
2018-12-01T13:09:32.377Z,21.4
2018-12-01T13:12:38.378Z,21.4
2018-12-01T13:15:44.355Z,21.4
2018-12-01T13:18:50.327Z,21.4
2018-12-01T13:21:56.304Z,21.4
2018-12-01T13:25:02.284Z,21.4
2018-12-01T13:28:08.282Z,21.4
2018-12-01T13:31:14.263Z,21.4
2018-12-01T13:34:20.248Z,21.4
2018-12-01T13:37:26.198Z,21.4
2018-12-01T13:40:32.139Z,21.4
2018-12-01T13:43:38.130Z,21.3
2018-12-01T13:46:44.129Z,21.4
2018-12-01T13:49:50.174Z,21.4
2018-12-01T13:52:57.020Z,21.4
2018-12-01T13:56:02.980Z,21.3
2018-12-01T13:59:11.620Z,21.4
2018-12-01T14:02:17.565Z,21.4
2018-12-01T14:05:23.702Z,21.4
2018-12-01T14:08:29.685Z,21.4
2018-12-01T14:11:35.618Z,21.3
2018-12-01T14:14:41.598Z,21.3
2018-12-01T14:17:47.741Z,21.3
2018-12-01T14:20:53.837Z,21.3
2018-12-01T14:23:59.782Z,21.3
2018-12-01T14:27:05.743Z,21.3
2018-12-01T14:30:11.772Z,21.3
2018-12-01T14:33:17.870Z,21.3
2018-12-01T14:36:23.830Z,21.3
2018-12-01T14:39:29.879Z,21.3
2018-12-01T14:42:36.215Z,21.2
2018-12-01T14:45:42.209Z,21.2
2018-12-01T14:48:48.325Z,21.2
2018-12-01T14:51:54.215Z,21.3
2018-12-01T14:55:00.287Z,21.3
2018-12-01T14:58:06.408Z,21.2
2018-12-01T15:01:12.419Z,21.3
2018-12-01T15:04:18.536Z,21.2
2018-12-01T15:07:27.289Z,21.2
2018-12-01T15:10:33.317Z,21.2
2018-12-01T15:13:39.309Z,21.2
2018-12-01T15:16:45.175Z,21.2
2018-12-01T15:19:51.195Z,21.2
2018-12-01T15:22:57.182Z,21.2
2018-12-01T15:26:03.156Z,21.2
2018-12-01T15:29:09.144Z,21.1
2018-12-01T15:32:15.205Z,21.1
2018-12-01T15:35:21.228Z,21.1
2018-12-01T15:38:27.201Z,21
2018-12-01T15:41:33.153Z,21
2018-12-01T15:44:41.840Z,21
2018-12-01T15:47:47.743Z,21
2018-12-01T15:50:54.920Z,21
2018-12-01T15:54:00.850Z,21
2018-12-01T15:57:06.743Z,21
2018-12-01T16:00:12.817Z,21
2018-12-01T16:03:18.841Z,21
2018-12-01T16:06:24.799Z,21
2018-12-01T16:09:30.832Z,20.9
2018-12-01T16:12:36.834Z,20.9
2018-12-01T16:15:42.855Z,20.9
2018-12-01T16:18:48.755Z,20.9
2018-12-01T16:21:54.753Z,20.9
2018-12-01T16:25:00.673Z,20.9
2018-12-01T16:28:06.607Z,20.9
2018-12-01T16:31:12.602Z,20.9
2018-12-01T16:34:18.509Z,20.9
2018-12-01T16:37:24.501Z,20.9
2018-12-01T16:40:30.408Z,20.9
2018-12-01T16:43:36.339Z,20.9
2018-12-01T16:46:42.423Z,20.8
2018-12-01T16:49:48.580Z,20.8
2018-12-01T16:52:55.513Z,20.8
2018-12-01T16:56:01.616Z,20.8
2018-12-01T16:59:07.754Z,20.8
2018-12-01T17:02:13.668Z,20.8
2018-12-01T17:05:19.676Z,20.8
2018-12-01T17:08:25.659Z,20.8
2018-12-01T17:11:31.601Z,20.8
2018-12-01T17:14:37.530Z,20.8
2018-12-01T17:17:43.484Z,20.8
2018-12-01T17:20:49.504Z,20.8
2018-12-01T17:23:55.598Z,20.8
2018-12-01T17:27:01.649Z,20.8
2018-12-01T17:30:07.563Z,20.8
2018-12-01T17:33:16.234Z,20.8
2018-12-01T17:36:22.232Z,20.8
2018-12-01T17:39:28.198Z,20.8
2018-12-01T17:42:34.209Z,20.8
2018-12-01T17:45:40.181Z,20.8
2018-12-01T17:48:46.112Z,20.8
2018-12-01T17:51:52.167Z,20.8
2018-12-01T17:54:58.187Z,20.7
2018-12-01T17:58:04.222Z,20.8
2018-12-01T18:01:10.136Z,20.8
2018-12-01T18:04:16.137Z,20.8
2018-12-01T18:07:25.044Z,20.7
2018-12-01T18:10:30.993Z,20.7
2018-12-01T18:13:36.952Z,20.7
2018-12-01T18:16:44.046Z,20.7
2018-12-01T18:19:49.997Z,20.7
2018-12-01T18:22:56.037Z,20.7
2018-12-01T18:26:01.926Z,20.7
2018-12-01T18:29:07.929Z,20.6
2018-12-01T18:32:13.837Z,20.6
2018-12-01T18:35:19.769Z,20.6
2018-12-01T18:38:25.668Z,20.6
2018-12-01T18:41:31.707Z,20.5
2018-12-01T18:44:37.654Z,20.5
2018-12-01T18:47:46.152Z,20.5
2018-12-01T18:50:52.090Z,20.4
2018-12-01T18:53:58.069Z,20.5
2018-12-01T18:57:04.023Z,20.4
2018-12-01T19:00:09.913Z,20.4
2018-12-01T19:03:15.973Z,20.4
2018-12-01T19:06:21.882Z,20.4
2018-12-01T19:09:27.804Z,20.4
2018-12-01T19:12:33.804Z,20.3
2018-12-01T19:15:39.807Z,20.3
2018-12-01T19:18:45.659Z,20.3
2018-12-01T19:21:51.604Z,20.3
2018-12-01T19:24:57.486Z,20.3
2018-12-01T19:28:04.173Z,20.2
2018-12-01T19:31:10.223Z,20.2
2018-12-01T19:34:18.762Z,20.2
2018-12-01T19:37:24.707Z,20.1
2018-12-01T19:40:31.513Z,20.1
2018-12-01T19:43:37.550Z,20.1
2018-12-01T19:46:43.494Z,20.1
2018-12-01T19:49:49.485Z,20.1
2018-12-01T19:52:55.555Z,20.1
2018-12-01T19:56:04.205Z,20
2018-12-01T19:59:10.195Z,20
2018-12-01T20:02:16.084Z,20
2018-12-01T20:05:22.097Z,20
2018-12-01T20:08:28.048Z,20
2018-12-01T20:11:33.930Z,20
2018-12-01T20:14:39.916Z,20
2018-12-01T20:17:45.915Z,20
2018-12-01T20:20:51.947Z,20
2018-12-01T20:23:57.908Z,20
2018-12-01T20:27:03.908Z,20
2018-12-01T20:30:09.865Z,19.9
2018-12-01T20:33:15.882Z,19.9
2018-12-01T20:36:24.463Z,19.9
2018-12-01T20:39:30.502Z,19.9
2018-12-01T20:42:36.676Z,19.9
2018-12-01T20:45:42.617Z,19.9
2018-12-01T20:48:48.800Z,19.9
2018-12-01T20:51:54.688Z,19.9
2018-12-01T20:55:00.659Z,19.9
2018-12-01T20:58:06.597Z,19.9
2018-12-01T21:01:12.665Z,19.9
2018-12-01T21:04:18.512Z,19.9
2018-12-01T21:07:24.619Z,19.9
2018-12-01T21:10:30.639Z,19.9
2018-12-01T21:13:36.498Z,19.9
2018-12-01T21:16:42.548Z,19.9
2018-12-01T21:19:48.416Z,19.9
2018-12-01T21:22:54.513Z,19.8
2018-12-01T21:26:00.577Z,19.9
2018-12-01T21:29:06.551Z,19.9
2018-12-01T21:32:12.458Z,19.8
2018-12-01T21:35:18.460Z,19.8
2018-12-01T21:38:24.456Z,19.8
2018-12-01T21:41:30.594Z,19.8
2018-12-01T21:44:36.620Z,19.8
2018-12-01T21:47:42.842Z,19.8
2018-12-01T21:50:48.801Z,19.8
2018-12-01T21:53:54.686Z,19.8
2018-12-01T21:57:00.630Z,19.8
2018-12-01T22:00:07.473Z,19.8
2018-12-01T22:03:13.387Z,19.8
2018-12-01T22:06:19.407Z,19.8
2018-12-01T22:09:25.301Z,19.8
2018-12-01T22:12:31.319Z,19.8
2018-12-01T22:15:37.398Z,19.7
2018-12-01T22:18:45.988Z,19.7
2018-12-01T22:21:51.967Z,19.7
2018-12-01T22:24:57.921Z,19.7
2018-12-01T22:28:04.737Z,19.7
2018-12-01T22:31:10.658Z,19.7
2018-12-01T22:34:16.657Z,19.7
2018-12-01T22:37:22.618Z,19.7
2018-12-01T22:40:28.550Z,19.7
2018-12-01T22:43:34.572Z,19.7
2018-12-01T22:46:40.501Z,19.7
2018-12-01T22:49:46.522Z,19.7
2018-12-01T22:52:52.535Z,19.7
2018-12-01T22:55:58.470Z,19.7
2018-12-01T22:59:04.451Z,19.7
2018-12-01T23:02:10.398Z,19.7
2018-12-01T23:05:17.027Z,19.7
2018-12-01T23:08:23.156Z,19.6
2018-12-01T23:11:29.096Z,19.6
2018-12-01T23:14:35.030Z,19.6
2018-12-01T23:17:41.002Z,19.6
2018-12-01T23:20:46.993Z,19.6
2018-12-01T23:23:53.041Z,19.6
2018-12-01T23:26:58.895Z,19.6
2018-12-01T23:30:04.949Z,19.6
2018-12-01T23:33:10.804Z,19.6
2018-12-01T23:36:16.738Z,19.6
2018-12-01T23:39:22.619Z,19.6
2018-12-01T23:42:28.636Z,19.6
2018-12-01T23:45:34.522Z,19.6
2018-12-01T23:48:40.560Z,19.6
2018-12-01T23:51:46.575Z,19.6
2018-12-01T23:54:52.601Z,19.6
2018-12-01T23:57:58.536Z,19.6
